Terminal Aerodrome Forecast
Issued by NWS Sterling, VA

Current Version | Previous Version | Text Only | Print | Product List | Glossary Off
Versions: 1 2 3 4 5 6 7 8 9 10 11 12 13 14 15 16 17 18 19 20 21 22 23

492
FTUS41 KLWX 252059 AAA
TAFIAD
TAF AMD
KIAD 252059Z 2521/2624 29008G16KT P6SM SCT070
     FM260000 29005KT P6SM FEW070
     FM261800 25009KT P6SM SCT070=

USA.gov is the U.S. government's official web portal to all federal, state and local government web resources and services.